HAZ2218 ZGHA-ZSHC
Flight info
| Callsign | HAZ2218 |
|---|---|
| Flight time | 1h 13m |
| Altitude | 29100 |
| Route | PATVO H166 P645 H160 P473 H26 TXN G204 OREXA |
| Aircraft | A320/M-SDE3FGHIRWY/LB1 |
Departure
| Time | 2026-04-23 13:52 |
|---|---|
| Airport | Changsha Huanghua International Airport (ZGHA) |
Arrival
| Time | 2026-04-23 15:05 |
|---|---|
| Airport | Hangzhou Xiaoshan International Airport (ZSHC) |
| Time | Latitude | Longitude | Altitude | Speed | Heading |
|---|---|---|---|---|---|
| 2026-04-23 13:32 | 28.18816 | 113.21509 | 214 ft | 0 kts | 178° |
| 2026-04-23 13:41 | 28.18827 | 113.21508 | 217 ft | 3 kts | 178° |
| 2026-04-23 13:41 | 28.18847 | 113.21507 | 222 ft | 3 kts | 180° |
| 2026-04-23 13:41 | 28.18865 | 113.21511 | 213 ft | 3 kts | 231° |
| 2026-04-23 13:42 | 28.18873 | 113.21531 | 213 ft | 3 kts | 263° |
| 2026-04-23 13:42 | 28.18875 | 113.21555 | 214 ft | 2 kts | 266° |
| 2026-04-23 13:42 | 28.18876 | 113.21576 | 219 ft | 3 kts | 266° |
| 2026-04-23 13:42 | 28.18877 | 113.21600 | 219 ft | 3 kts | 267° |
| 2026-04-23 13:43 | 28.18878 | 113.21620 | 214 ft | 3 kts | 265° |
| 2026-04-23 13:43 | 28.18882 | 113.21643 | 214 ft | 3 kts | 241° |
| 2026-04-23 13:43 | 28.18895 | 113.21662 | 220 ft | 3 kts | 214° |
| 2026-04-23 13:43 | 28.18914 | 113.21673 | 214 ft | 3 kts | 194° |
| 2026-04-23 13:44 | 28.18935 | 113.21676 | 215 ft | 3 kts | 179° |
| 2026-04-23 13:44 | 28.18940 | 113.21676 | 215 ft | 0 kts | 177° |
| 2026-04-23 13:46 | 28.18922 | 113.21678 | 215 ft | 8 kts | 174° |
| 2026-04-23 13:46 | 28.18884 | 113.21717 | 216 ft | 7 kts | 98° |
| 2026-04-23 13:46 | 28.18868 | 113.21774 | 217 ft | 12 kts | 139° |
| 2026-04-23 13:47 | 28.18768 | 113.21797 | 217 ft | 16 kts | 175° |
| 2026-04-23 13:47 | 28.18654 | 113.21806 | 214 ft | 17 kts | 177° |
| 2026-04-23 13:47 | 28.18562 | 113.21811 | 214 ft | 23 kts | 177° |
| 2026-04-23 13:47 | 28.18396 | 113.21821 | 213 ft | 25 kts | 177° |
| 2026-04-23 13:48 | 28.18221 | 113.21832 | 216 ft | 26 kts | 177° |
| 2026-04-23 13:48 | 28.18046 | 113.21843 | 216 ft | 25 kts | 177° |
| 2026-04-23 13:48 | 28.17871 | 113.21853 | 214 ft | 21 kts | 176° |
| 2026-04-23 13:48 | 28.17758 | 113.21868 | 219 ft | 12 kts | 152° |
| 2026-04-23 13:49 | 28.17742 | 113.21935 | 215 ft | 1 kts | 90° |
| 2026-04-23 13:49 | 28.17742 | 113.21934 | 215 ft | 0 kts | 90° |
| 2026-04-23 13:50 | 28.17742 | 113.21975 | 216 ft | 11 kts | 89° |
| 2026-04-23 13:50 | 28.17788 | 113.22045 | 217 ft | 12 kts | 7° |
| 2026-04-23 13:50 | 28.17807 | 113.22044 | 215 ft | 0 kts | 357° |
| 2026-04-23 13:51 | 28.17816 | 113.22044 | 219 ft | 8 kts | 357° |
| 2026-04-23 13:52 | 28.18111 | 113.22025 | 221 ft | 80 kts | 357° |
| 2026-04-23 13:52 | 28.18868 | 113.21979 | 217 ft | 138 kts | 357° |
| 2026-04-23 13:52 | 28.19976 | 113.21911 | 375 ft | 170 kts | 357° |
| 2026-04-23 13:52 | 28.21164 | 113.21844 | 1079 ft | 172 kts | 358° |
| 2026-04-23 13:53 | 28.22355 | 113.21777 | 1817 ft | 171 kts | 358° |
| 2026-04-23 13:53 | 28.23584 | 113.21702 | 2343 ft | 186 kts | 358° |
| 2026-04-23 13:53 | 28.24947 | 113.21618 | 2646 ft | 207 kts | 357° |
| 2026-04-23 13:53 | 28.26422 | 113.21525 | 3155 ft | 216 kts | 357° |
| 2026-04-23 13:54 | 28.27927 | 113.21430 | 3924 ft | 217 kts | 357° |
| 2026-04-23 13:54 | 28.29436 | 113.21334 | 4734 ft | 218 kts | 357° |
| 2026-04-23 13:54 | 28.30955 | 113.21239 | 5508 ft | 219 kts | 357° |
| 2026-04-23 13:54 | 28.32485 | 113.21143 | 6283 ft | 221 kts | 356° |
| 2026-04-23 13:55 | 28.34027 | 113.21047 | 7006 ft | 223 kts | 356° |
| 2026-04-23 13:55 | 28.35583 | 113.20952 | 7731 ft | 225 kts | 356° |
| 2026-04-23 13:55 | 28.37138 | 113.21149 | 8426 ft | 230 kts | 22° |
| 2026-04-23 13:55 | 28.38362 | 113.22330 | 9136 ft | 240 kts | 57° |
| 2026-04-23 13:56 | 28.38792 | 113.24187 | 9862 ft | 250 kts | 82° |
| 2026-04-23 13:56 | 28.38904 | 113.26169 | 10515 ft | 254 kts | 83° |
| 2026-04-23 13:56 | 28.38989 | 113.28191 | 11114 ft | 259 kts | 83° |
| 2026-04-23 13:56 | 28.39067 | 113.30259 | 11722 ft | 265 kts | 84° |
| 2026-04-23 13:57 | 28.39151 | 113.32372 | 12332 ft | 271 kts | 83° |
| 2026-04-23 13:57 | 28.39244 | 113.34530 | 12938 ft | 276 kts | 83° |
| 2026-04-23 13:57 | 28.39341 | 113.36734 | 13538 ft | 282 kts | 83° |
| 2026-04-23 13:57 | 28.39442 | 113.38980 | 14096 ft | 288 kts | 83° |
| 2026-04-23 13:58 | 28.39548 | 113.41264 | 14641 ft | 292 kts | 83° |
| 2026-04-23 13:58 | 28.39515 | 113.43583 | 15182 ft | 299 kts | 101° |
| 2026-04-23 13:58 | 28.38658 | 113.45739 | 15705 ft | 302 kts | 131° |
| 2026-04-23 13:58 | 28.37043 | 113.47242 | 16078 ft | 306 kts | 161° |
| 2026-04-23 13:59 | 28.34954 | 113.47773 | 16240 ft | 315 kts | 184° |
| 2026-04-23 13:59 | 28.32689 | 113.47873 | 16358 ft | 337 kts | 184° |
| 2026-04-23 13:59 | 28.30271 | 113.47976 | 16492 ft | 358 kts | 183° |
| 2026-04-23 13:59 | 28.27737 | 113.48096 | 16603 ft | 378 kts | 182° |
| 2026-04-23 14:00 | 28.25934 | 113.48191 | 16689 ft | 390 kts | 182° |
| 2026-04-23 14:00 | 28.22235 | 113.48402 | 16894 ft | 412 kts | 182° |
| 2026-04-23 14:00 | 28.19349 | 113.48581 | 17315 ft | 418 kts | 181° |
| 2026-04-23 14:00 | 28.16452 | 113.49166 | 17840 ft | 431 kts | 166° |
| 2026-04-23 14:01 | 28.13731 | 113.50677 | 18365 ft | 442 kts | 149° |
| 2026-04-23 14:01 | 28.11457 | 113.53063 | 18795 ft | 453 kts | 131° |
| 2026-04-23 14:01 | 28.09843 | 113.56157 | 19243 ft | 460 kts | 116° |
| 2026-04-23 14:01 | 28.08499 | 113.59463 | 19673 ft | 464 kts | 116° |
| 2026-04-23 14:02 | 28.07160 | 113.62796 | 20114 ft | 467 kts | 116° |
| 2026-04-23 14:02 | 28.05927 | 113.66209 | 20527 ft | 472 kts | 109° |
| 2026-04-23 14:02 | 28.05131 | 113.69832 | 20927 ft | 477 kts | 100° |
| 2026-04-23 14:02 | 28.04821 | 113.73588 | 21338 ft | 481 kts | 90° |
| 2026-04-23 14:03 | 28.05020 | 113.77377 | 21707 ft | 485 kts | 82° |
| 2026-04-23 14:03 | 28.05495 | 113.81175 | 22079 ft | 489 kts | 81° |
| 2026-04-23 14:03 | 28.05972 | 113.85003 | 22448 ft | 493 kts | 82° |
| 2026-04-23 14:03 | 28.06447 | 113.88864 | 22818 ft | 497 kts | 82° |
| 2026-04-23 14:04 | 28.06923 | 113.92755 | 23182 ft | 501 kts | 82° |
| 2026-04-23 14:04 | 28.07398 | 113.96673 | 23542 ft | 504 kts | 82° |
| 2026-04-23 14:04 | 28.07875 | 114.00619 | 23851 ft | 508 kts | 82° |
| 2026-04-23 14:04 | 28.08353 | 114.04596 | 24134 ft | 512 kts | 82° |
| 2026-04-23 14:05 | 28.08834 | 114.08603 | 24387 ft | 516 kts | 82° |
| 2026-04-23 14:05 | 28.09314 | 114.12606 | 24585 ft | 522 kts | 83° |
| 2026-04-23 14:05 | 28.09804 | 114.16692 | 24839 ft | 526 kts | 83° |
| 2026-04-23 14:05 | 28.10301 | 114.20811 | 25102 ft | 530 kts | 83° |
| 2026-04-23 14:06 | 28.10801 | 114.24959 | 25378 ft | 533 kts | 83° |
| 2026-04-23 14:06 | 28.11302 | 114.29126 | 25625 ft | 536 kts | 83° |
| 2026-04-23 14:06 | 28.11803 | 114.33331 | 25870 ft | 540 kts | 83° |
| 2026-04-23 14:06 | 28.12321 | 114.37552 | 26164 ft | 543 kts | 82° |
| 2026-04-23 14:07 | 28.12895 | 114.41781 | 26439 ft | 545 kts | 81° |
| 2026-04-23 14:07 | 28.14169 | 114.50304 | 26899 ft | 552 kts | 81° |
| 2026-04-23 14:07 | 28.14826 | 114.54601 | 27130 ft | 555 kts | 81° |
| 2026-04-23 14:08 | 28.15470 | 114.58921 | 27361 ft | 558 kts | 81° |
| 2026-04-23 14:08 | 28.16099 | 114.63268 | 27691 ft | 559 kts | 82° |
| 2026-04-23 14:08 | 28.16711 | 114.67617 | 28021 ft | 560 kts | 82° |
| 2026-04-23 14:08 | 28.17317 | 114.71977 | 28337 ft | 561 kts | 82° |
| 2026-04-23 14:09 | 28.17922 | 114.76346 | 28643 ft | 562 kts | 82° |
| 2026-04-23 14:09 | 28.18531 | 114.80730 | 28953 ft | 564 kts | 82° |
| 2026-04-23 14:09 | 28.19148 | 114.85125 | 29140 ft | 566 kts | 82° |
| 2026-04-23 14:09 | 28.19772 | 114.89538 | 29173 ft | 568 kts | 82° |
| 2026-04-23 14:10 | 28.21021 | 114.98378 | 29162 ft | 568 kts | 82° |
| 2026-04-23 14:10 | 28.22258 | 115.07236 | 29164 ft | 570 kts | 82° |
| 2026-04-23 14:11 | 28.23485 | 115.16127 | 29165 ft | 571 kts | 82° |
| 2026-04-23 14:11 | 28.24704 | 115.25004 | 29159 ft | 568 kts | 82° |
| 2026-04-23 14:12 | 28.25907 | 115.33851 | 29129 ft | 567 kts | 82° |
| 2026-04-23 14:12 | 28.27108 | 115.42706 | 29138 ft | 569 kts | 82° |
| 2026-04-23 14:13 | 28.28302 | 115.51583 | 29140 ft | 570 kts | 82° |
| 2026-04-23 14:13 | 28.29499 | 115.60417 | 29148 ft | 571 kts | 82° |
| 2026-04-23 14:14 | 28.30701 | 115.69321 | 29134 ft | 572 kts | 83° |
| 2026-04-23 14:14 | 28.31895 | 115.78254 | 29139 ft | 573 kts | 83° |
| 2026-04-23 14:15 | 28.33100 | 115.87208 | 29156 ft | 575 kts | 81° |
| 2026-04-23 14:15 | 28.35026 | 115.96019 | 29166 ft | 576 kts | 75° |
| 2026-04-23 14:16 | 28.37631 | 116.04594 | 29181 ft | 575 kts | 66° |
| 2026-04-23 14:16 | 28.40698 | 116.12973 | 29179 ft | 575 kts | 66° |
| 2026-04-23 14:17 | 28.43758 | 116.21356 | 29175 ft | 574 kts | 66° |
| 2026-04-23 14:17 | 28.46811 | 116.29745 | 29147 ft | 575 kts | 66° |
| 2026-04-23 14:18 | 28.49861 | 116.38160 | 29151 ft | 575 kts | 66° |
| 2026-04-23 14:18 | 28.52905 | 116.46577 | 29152 ft | 576 kts | 66° |
| 2026-04-23 14:19 | 28.55952 | 116.55001 | 29159 ft | 576 kts | 66° |
| 2026-04-23 14:19 | 28.58987 | 116.63435 | 29149 ft | 576 kts | 66° |
| 2026-04-23 14:20 | 28.62020 | 116.71885 | 29152 ft | 577 kts | 66° |
| 2026-04-23 14:20 | 28.65059 | 116.80336 | 29160 ft | 577 kts | 66° |
| 2026-04-23 14:21 | 28.68098 | 116.88796 | 29179 ft | 577 kts | 66° |
| 2026-04-23 14:21 | 28.71117 | 116.97264 | 29168 ft | 577 kts | 66° |
| 2026-04-23 14:22 | 28.74125 | 117.05738 | 29163 ft | 577 kts | 66° |
| 2026-04-23 14:22 | 28.77138 | 117.14214 | 29150 ft | 577 kts | 66° |
| 2026-04-23 14:23 | 28.80304 | 117.22543 | 29151 ft | 574 kts | 58° |
| 2026-04-23 14:23 | 28.85032 | 117.29732 | 29157 ft | 561 kts | 38° |
| 2026-04-23 14:24 | 28.91140 | 117.34976 | 29182 ft | 540 kts | 19° |
| 2026-04-23 14:24 | 28.94496 | 117.36783 | 29172 ft | 528 kts | 11° |
| 2026-04-23 14:24 | 28.97934 | 117.38175 | 29162 ft | 524 kts | 8° |
| 2026-04-23 14:25 | 29.04824 | 117.40905 | 29155 ft | 524 kts | 9° |
| 2026-04-23 14:25 | 29.11715 | 117.43564 | 29196 ft | 521 kts | 7° |
| 2026-04-23 14:26 | 29.18628 | 117.46007 | 29179 ft | 519 kts | 6° |
| 2026-04-23 14:26 | 29.25529 | 117.48406 | 29151 ft | 519 kts | 7° |
| 2026-04-23 14:27 | 29.28919 | 117.50001 | 29145 ft | 535 kts | 19° |
| 2026-04-23 14:27 | 29.32095 | 117.52316 | 29174 ft | 549 kts | 31° |
| 2026-04-23 14:27 | 29.34927 | 117.55312 | 29189 ft | 559 kts | 43° |
| 2026-04-23 14:27 | 29.37286 | 117.58886 | 29182 ft | 566 kts | 55° |
| 2026-04-23 14:28 | 29.40673 | 117.67068 | 29171 ft | 569 kts | 65° |
| 2026-04-23 14:28 | 29.43841 | 117.75376 | 29159 ft | 569 kts | 64° |
| 2026-04-23 14:29 | 29.46986 | 117.83630 | 29153 ft | 569 kts | 64° |
| 2026-04-23 14:29 | 29.50149 | 117.91945 | 29187 ft | 568 kts | 65° |
| 2026-04-23 14:30 | 29.53452 | 118.00163 | 29180 ft | 565 kts | 57° |
| 2026-04-23 14:30 | 29.58110 | 118.07298 | 29154 ft | 553 kts | 40° |
| 2026-04-23 14:31 | 29.63529 | 118.13558 | 29141 ft | 553 kts | 39° |
| 2026-04-23 14:31 | 29.68623 | 118.20248 | 29182 ft | 562 kts | 54° |
| 2026-04-23 14:32 | 29.71840 | 118.28454 | 29180 ft | 566 kts | 75° |
| 2026-04-23 14:32 | 29.72577 | 118.32886 | 29182 ft | 563 kts | 86° |
| 2026-04-23 14:32 | 29.72689 | 118.37367 | 29155 ft | 558 kts | 97° |
| 2026-04-23 14:33 | 29.71928 | 118.46163 | 29136 ft | 557 kts | 100° |
| 2026-04-23 14:33 | 29.71119 | 118.55033 | 29001 ft | 559 kts | 100° |
| 2026-04-23 14:34 | 29.70716 | 118.59484 | 28477 ft | 559 kts | 100° |
| 2026-04-23 14:34 | 29.70317 | 118.63923 | 27958 ft | 557 kts | 99° |
| 2026-04-23 14:34 | 29.69916 | 118.68344 | 27429 ft | 556 kts | 99° |
| 2026-04-23 14:34 | 29.69516 | 118.72766 | 26930 ft | 556 kts | 99° |
| 2026-04-23 14:35 | 29.69117 | 118.77185 | 26438 ft | 555 kts | 99° |
| 2026-04-23 14:35 | 29.68721 | 118.81594 | 25961 ft | 554 kts | 99° |
| 2026-04-23 14:35 | 29.68453 | 118.84569 | 25639 ft | 553 kts | 99° |
| 2026-04-23 14:35 | 29.67928 | 118.90381 | 25019 ft | 551 kts | 99° |
| 2026-04-23 14:36 | 29.67528 | 118.94756 | 24560 ft | 549 kts | 99° |
| 2026-04-23 14:36 | 29.67123 | 118.99116 | 24083 ft | 549 kts | 99° |
| 2026-04-23 14:36 | 29.66847 | 119.02067 | 23783 ft | 549 kts | 99° |
| 2026-04-23 14:36 | 29.66505 | 119.06368 | 23292 ft | 547 kts | 94° |
| 2026-04-23 14:37 | 29.66627 | 119.10718 | 22770 ft | 543 kts | 85° |
| 2026-04-23 14:37 | 29.67279 | 119.14979 | 22252 ft | 539 kts | 76° |
| 2026-04-23 14:37 | 29.68431 | 119.19052 | 21741 ft | 533 kts | 66° |
| 2026-04-23 14:37 | 29.70046 | 119.22853 | 21262 ft | 525 kts | 58° |
| 2026-04-23 14:38 | 29.72048 | 119.26321 | 20770 ft | 517 kts | 52° |
| 2026-04-23 14:38 | 29.74136 | 119.29677 | 20279 ft | 514 kts | 52° |
| 2026-04-23 14:38 | 29.76205 | 119.33011 | 19805 ft | 510 kts | 52° |
| 2026-04-23 14:38 | 29.78254 | 119.36317 | 19338 ft | 505 kts | 52° |
| 2026-04-23 14:39 | 29.80277 | 119.39587 | 18878 ft | 499 kts | 52° |
| 2026-04-23 14:39 | 29.82268 | 119.42806 | 18440 ft | 488 kts | 52° |
| 2026-04-23 14:39 | 29.84221 | 119.45966 | 17910 ft | 479 kts | 52° |
| 2026-04-23 14:39 | 29.86135 | 119.49064 | 17392 ft | 470 kts | 52° |
| 2026-04-23 14:40 | 29.88006 | 119.52103 | 16902 ft | 460 kts | 52° |
| 2026-04-23 14:40 | 29.89841 | 119.55085 | 16436 ft | 452 kts | 52° |
| 2026-04-23 14:40 | 29.91642 | 119.58010 | 15973 ft | 444 kts | 52° |
| 2026-04-23 14:40 | 29.93415 | 119.60887 | 15518 ft | 436 kts | 52° |
| 2026-04-23 14:41 | 29.95156 | 119.63714 | 15094 ft | 429 kts | 52° |
| 2026-04-23 14:41 | 29.96869 | 119.66497 | 14672 ft | 422 kts | 52° |
| 2026-04-23 14:41 | 29.98553 | 119.69239 | 14250 ft | 416 kts | 52° |
| 2026-04-23 14:41 | 30.00213 | 119.71943 | 13833 ft | 410 kts | 52° |
| 2026-04-23 14:42 | 30.01846 | 119.74608 | 13371 ft | 404 kts | 53° |
| 2026-04-23 14:42 | 30.03436 | 119.77250 | 12903 ft | 398 kts | 56° |
| 2026-04-23 14:42 | 30.04722 | 119.80008 | 12437 ft | 381 kts | 61° |
| 2026-04-23 14:42 | 30.05906 | 119.82654 | 12003 ft | 362 kts | 61° |
| 2026-04-23 14:43 | 30.07025 | 119.85142 | 11569 ft | 346 kts | 61° |
| 2026-04-23 14:43 | 30.08127 | 119.87584 | 11130 ft | 332 kts | 61° |
| 2026-04-23 14:43 | 30.09172 | 119.89898 | 10686 ft | 319 kts | 61° |
| 2026-04-23 14:43 | 30.10168 | 119.92100 | 10240 ft | 309 kts | 61° |
| 2026-04-23 14:44 | 30.11145 | 119.94262 | 9775 ft | 299 kts | 61° |
| 2026-04-23 14:44 | 30.12091 | 119.96361 | 9279 ft | 291 kts | 61° |
| 2026-04-23 14:44 | 30.13003 | 119.98395 | 8884 ft | 279 kts | 61° |
| 2026-04-23 14:44 | 30.13877 | 120.00352 | 8506 ft | 269 kts | 62° |
| 2026-04-23 14:45 | 30.14712 | 120.02236 | 8118 ft | 259 kts | 63° |
| 2026-04-23 14:45 | 30.15115 | 120.04205 | 7750 ft | 252 kts | 94° |
| 2026-04-23 14:45 | 30.14517 | 120.06061 | 7387 ft | 249 kts | 129° |
| 2026-04-23 14:45 | 30.13140 | 120.07229 | 7027 ft | 247 kts | 155° |
| 2026-04-23 14:46 | 30.11583 | 120.08057 | 6669 ft | 246 kts | 155° |
| 2026-04-23 14:46 | 30.10031 | 120.08870 | 6299 ft | 245 kts | 155° |
| 2026-04-23 14:46 | 30.08481 | 120.09676 | 5916 ft | 244 kts | 155° |
| 2026-04-23 14:46 | 30.06936 | 120.10471 | 5547 ft | 242 kts | 157° |
| 2026-04-23 14:47 | 30.05320 | 120.10818 | 5292 ft | 236 kts | 187° |
| 2026-04-23 14:47 | 30.03835 | 120.10148 | 5033 ft | 228 kts | 220° |
| 2026-04-23 14:47 | 30.02908 | 120.08717 | 4776 ft | 222 kts | 250° |
| 2026-04-23 14:47 | 30.02679 | 120.07004 | 4550 ft | 215 kts | 277° |
| 2026-04-23 14:48 | 30.03139 | 120.05397 | 4395 ft | 211 kts | 304° |
| 2026-04-23 14:48 | 30.04173 | 120.04232 | 4241 ft | 209 kts | 332° |
| 2026-04-23 14:48 | 30.05552 | 120.03799 | 4086 ft | 207 kts | 1° |
| 2026-04-23 14:48 | 30.06932 | 120.04193 | 3960 ft | 206 kts | 30° |
| 2026-04-23 14:49 | 30.07972 | 120.05316 | 3899 ft | 207 kts | 58° |
| 2026-04-23 14:49 | 30.08641 | 120.06774 | 3908 ft | 209 kts | 62° |
| 2026-04-23 14:49 | 30.09306 | 120.08268 | 3906 ft | 209 kts | 62° |
| 2026-04-23 14:49 | 30.09973 | 120.09761 | 3904 ft | 209 kts | 62° |
| 2026-04-23 14:50 | 30.10640 | 120.11251 | 3903 ft | 209 kts | 62° |
| 2026-04-23 14:50 | 30.11307 | 120.12743 | 3902 ft | 209 kts | 62° |
| 2026-04-23 14:50 | 30.11973 | 120.14233 | 3900 ft | 209 kts | 62° |
| 2026-04-23 14:50 | 30.12639 | 120.15724 | 3903 ft | 209 kts | 62° |
| 2026-04-23 14:51 | 30.13305 | 120.17215 | 3905 ft | 209 kts | 62° |
| 2026-04-23 14:51 | 30.13970 | 120.18705 | 3905 ft | 208 kts | 62° |
| 2026-04-23 14:51 | 30.14614 | 120.20147 | 3890 ft | 196 kts | 62° |
| 2026-04-23 14:51 | 30.15224 | 120.21514 | 3706 ft | 189 kts | 62° |
| 2026-04-23 14:52 | 30.15822 | 120.22855 | 3480 ft | 187 kts | 62° |
| 2026-04-23 14:52 | 30.16413 | 120.24181 | 3237 ft | 185 kts | 62° |
| 2026-04-23 14:52 | 30.17001 | 120.25500 | 2987 ft | 184 kts | 62° |
| 2026-04-23 14:52 | 30.17583 | 120.26805 | 2738 ft | 181 kts | 62° |
| 2026-04-23 14:53 | 30.18152 | 120.28083 | 2502 ft | 177 kts | 62° |
| 2026-04-23 14:53 | 30.18710 | 120.29337 | 2260 ft | 174 kts | 62° |
| 2026-04-23 14:53 | 30.19256 | 120.30563 | 2027 ft | 168 kts | 62° |
| 2026-04-23 14:53 | 30.19766 | 120.31710 | 1828 ft | 152 kts | 62° |
| 2026-04-23 14:54 | 30.20231 | 120.32756 | 1611 ft | 142 kts | 62° |
| 2026-04-23 14:54 | 30.20677 | 120.33759 | 1422 ft | 139 kts | 62° |
| 2026-04-23 14:54 | 30.21117 | 120.34746 | 1229 ft | 138 kts | 62° |
| 2026-04-23 14:54 | 30.21554 | 120.35730 | 1042 ft | 137 kts | 62° |
| 2026-04-23 14:55 | 30.21991 | 120.36713 | 848 ft | 138 kts | 62° |
| 2026-04-23 14:55 | 30.22429 | 120.37698 | 666 ft | 138 kts | 62° |
| 2026-04-23 14:55 | 30.22867 | 120.38688 | 479 ft | 139 kts | 62° |
| 2026-04-23 14:55 | 30.23309 | 120.39681 | 296 ft | 139 kts | 62° |
| 2026-04-23 14:56 | 30.23744 | 120.40663 | 110 ft | 139 kts | 62° |
| 2026-04-23 14:56 | 30.24162 | 120.41614 | 59 ft | 123 kts | 63° |
| 2026-04-23 14:56 | 30.24618 | 120.42602 | 486 ft | 151 kts | 60° |
| 2026-04-23 14:56 | 30.25179 | 120.43784 | 1036 ft | 183 kts | 60° |
| 2026-04-23 14:57 | 30.25872 | 120.45008 | 1945 ft | 182 kts | 42° |
| 2026-04-23 14:57 | 30.27062 | 120.45655 | 2284 ft | 203 kts | 5° |
| 2026-04-23 14:57 | 30.28478 | 120.45338 | 2796 ft | 215 kts | 338° |
| 2026-04-23 14:57 | 30.29847 | 120.44600 | 2957 ft | 217 kts | 334° |
| 2026-04-23 14:58 | 30.31173 | 120.43780 | 2982 ft | 216 kts | 325° |
| 2026-04-23 14:58 | 30.32093 | 120.42428 | 2985 ft | 218 kts | 290° |
| 2026-04-23 14:58 | 30.32183 | 120.40693 | 2985 ft | 221 kts | 256° |
| 2026-04-23 14:58 | 30.31616 | 120.39037 | 2976 ft | 222 kts | 245° |
| 2026-04-23 14:59 | 30.30926 | 120.37437 | 2983 ft | 222 kts | 244° |
| 2026-04-23 14:59 | 30.30224 | 120.35854 | 2977 ft | 217 kts | 244° |
| 2026-04-23 14:59 | 30.29545 | 120.34333 | 2851 ft | 210 kts | 243° |
| 2026-04-23 14:59 | 30.28882 | 120.32847 | 2694 ft | 205 kts | 243° |
| 2026-04-23 15:00 | 30.28233 | 120.31393 | 2538 ft | 201 kts | 243° |
| 2026-04-23 15:00 | 30.27602 | 120.29983 | 2420 ft | 194 kts | 243° |
| 2026-04-23 15:00 | 30.26988 | 120.28610 | 2260 ft | 191 kts | 243° |
| 2026-04-23 15:00 | 30.26377 | 120.27245 | 2109 ft | 190 kts | 243° |
| 2026-04-23 15:01 | 30.25707 | 120.25936 | 2020 ft | 190 kts | 227° |
| 2026-04-23 15:01 | 30.24563 | 120.25249 | 1983 ft | 189 kts | 185° |
| 2026-04-23 15:01 | 30.23284 | 120.25502 | 2008 ft | 188 kts | 158° |
| 2026-04-23 15:01 | 30.22093 | 120.26084 | 2004 ft | 188 kts | 154° |
| 2026-04-23 15:02 | 30.21301 | 120.26536 | 2003 ft | 188 kts | 146° |
| 2026-04-23 15:02 | 30.20080 | 120.27937 | 2003 ft | 186 kts | 119° |
| 2026-04-23 15:02 | 30.19611 | 120.29287 | 2004 ft | 183 kts | 99° |
| 2026-04-23 15:02 | 30.19565 | 120.30781 | 1898 ft | 186 kts | 79° |
| 2026-04-23 15:03 | 30.19946 | 120.32120 | 1721 ft | 166 kts | 61° |
| 2026-04-23 15:03 | 30.20443 | 120.33232 | 1503 ft | 148 kts | 61° |
| 2026-04-23 15:03 | 30.20900 | 120.34257 | 1318 ft | 141 kts | 61° |
| 2026-04-23 15:03 | 30.21352 | 120.35247 | 1116 ft | 138 kts | 62° |
| 2026-04-23 15:04 | 30.21779 | 120.36235 | 939 ft | 137 kts | 62° |
| 2026-04-23 15:04 | 30.22225 | 120.37213 | 748 ft | 138 kts | 60° |
| 2026-04-23 15:04 | 30.22663 | 120.38198 | 573 ft | 138 kts | 62° |
| 2026-04-23 15:04 | 30.23088 | 120.39196 | 391 ft | 138 kts | 61° |
| 2026-04-23 15:05 | 30.23540 | 120.40180 | 187 ft | 138 kts | 63° |
| 2026-04-23 15:05 | 30.23971 | 120.41169 | 47 ft | 135 kts | 62° |
| 2026-04-23 15:05 | 30.24349 | 120.42023 | 33 ft | 97 kts | 63° |
| 2026-04-23 15:05 | 30.24578 | 120.42541 | 29 ft | 48 kts | 63° |
| 2026-04-23 15:06 | 30.24688 | 120.42788 | 30 ft | 31 kts | 63° |
| 2026-04-23 15:06 | 30.24722 | 120.43020 | 33 ft | 28 kts | 89° |
| 2026-04-23 15:06 | 30.24722 | 120.43164 | 32 ft | 15 kts | 91° |
| 2026-04-23 15:06 | 30.24686 | 120.43266 | 32 ft | 13 kts | 147° |
| 2026-04-23 15:07 | 30.24610 | 120.43264 | 32 ft | 11 kts | 222° |
| 2026-04-23 15:07 | 30.24557 | 120.43154 | 32 ft | 25 kts | 243° |
| 2026-04-23 15:07 | 30.24468 | 120.42953 | 32 ft | 27 kts | 243° |
| 2026-04-23 15:07 | 30.24402 | 120.42810 | 32 ft | 15 kts | 229° |
| 2026-04-23 15:08 | 30.24314 | 120.42822 | 32 ft | 13 kts | 152° |
| 2026-04-23 15:08 | 30.24244 | 120.42861 | 32 ft | 10 kts | 154° |
| 2026-04-23 15:08 | 30.24189 | 120.42892 | 32 ft | 8 kts | 154° |
| 2026-04-23 15:09 | 30.24075 | 120.42934 | 31 ft | 13 kts | 205° |
| 2026-04-23 15:09 | 30.24033 | 120.42884 | 32 ft | 5 kts | 241° |
| 2026-04-23 15:09 | 30.24025 | 120.42866 | 31 ft | 1 kts | 242° |
| 2026-04-23 15:09 | 30.24024 | 120.42865 | 32 ft | 0 kts | 242° |